Time;durP1;ratioP1;P1;durP2;ratioP2;P2;SDS_P1;SDS_P2;PMS_P1;PMS_P2;Temp;Humidity;BMP_temperature;BMP_pressure;BME280_temperature;BME280_humidity;BME280_pressure;Samples;Min_cycle;Max_cycle;Signal;HPM_P1;HPM_P2
2022/08/25 00:02:00;;;;;;;3.88;2.40;;;;;;;21.29;51.38;98544.50;5091889;28;20154;-49
2022/08/25 00:04:28;;;;;;;5.65;2.50;;;;;;;21.47;50.17;98544.97;5090587;28;20028;-49
2022/08/25 00:06:54;;;;;;;7.20;2.45;;;;;;;21.71;49.51;98545.09;5091720;28;20020;-49
2022/08/25 00:09:23;;;;;;;4.70;2.08;;;;;;;21.97;49.27;98543.03;5092436;28;20071;-49
2022/08/25 00:11:50;;;;;;;9.18;2.45;;;;;;;22.17;48.87;98552.78;5095910;28;20106;-49
2022/08/25 00:14:23;;;;;;;5.88;2.50;;;;;;;22.24;48.43;98555.97;5094664;28;20073;-49
2022/08/25 00:16:50;;;;;;;5.45;2.40;;;;;;;22.25;48.82;98551.44;5094592;28;20046;-48
2022/08/25 00:19:20;;;;;;;6.38;2.72;;;;;;;22.27;48.97;98546.59;5095827;28;20024;-49
2022/08/25 00:21:46;;;;;;;5.90;2.38;;;;;;;22.42;48.64;98540.34;5096091;28;20085;-49
2022/08/25 00:24:16;;;;;;;4.60;2.17;;;;;;;22.47;48.10;98538.38;5095826;28;20424;-49
2022/08/25 00:26:44;;;;;;;4.50;1.95;;;;;;;22.44;48.15;98536.28;5095626;28;20111;-49
2022/08/25 00:29:10;;;;;;;4.30;2.35;;;;;;;22.33;48.01;98530.25;5095470;28;20409;-49
2022/08/25 00:31:37;;;;;;;4.85;2.17;;;;;;;22.11;48.77;98538.69;5094279;28;20077;-49
2022/08/25 00:34:06;;;;;;;6.07;2.65;;;;;;;21.94;48.86;98536.38;5094309;28;20035;-49
2022/08/25 00:36:33;;;;;;;12.02;3.30;;;;;;;21.93;49.27;98537.47;5095574;28;20020;-47
2022/08/25 00:38:58;;;;;;;6.47;2.28;;;;;;;22.16;49.04;98531.72;5094233;28;20028;-49
2022/08/25 00:41:25;;;;;;;2.88;2.10;;;;;;;22.28;48.43;98532.16;5095435;28;20020;-50
2022/08/25 00:43:58;;;;;;;6.90;2.90;;;;;;;22.28;48.84;98532.16;5094083;28;20031;-49
2022/08/25 00:46:35;;;;;;;5.40;2.45;;;;;;;22.27;48.98;98525.22;5093983;28;20125;-49
2022/08/25 00:49:12;;;;;;;5.07;2.30;;;;;;;22.24;48.97;98520.44;5095354;28;20035;-49
2022/08/25 00:51:43;;;;;;;7.28;2.53;;;;;;;22.06;49.66;98519.22;5095289;28;20039;-49
2022/08/25 00:54:17;;;;;;;4.70;2.53;;;;;;;21.95;50.13;98523.81;5095271;28;20113;-49
2022/08/25 00:56:44;;;;;;;5.88;2.30;;;;;;;21.89;50.46;98523.09;5093903;28;20107;-49
2022/08/25 00:59:10;;;;;;;3.50;2.17;;;;;;;21.72;51.34;98526.13;5095143;28;20092;-49
2022/08/25 01:01:36;;;;;;;6.40;2.58;;;;;;;21.71;51.41;98521.88;5095097;28;20059;-49
2022/08/25 01:04:01;;;;;;;8.90;2.80;;;;;;;21.78;51.01;98539.47;5095098;28;20486;-49
2022/08/25 01:06:29;;;;;;;7.20;2.45;;;;;;;21.84;50.87;98530.34;5093544;28;20048;-49
2022/08/25 01:08:55;;;;;;;6.30;2.70;;;;;;;21.86;50.66;98541.53;5094978;28;20052;-49
2022/08/25 01:11:21;;;;;;;9.52;2.50;;;;;;;21.92;50.34;98543.88;5094877;28;20393;-48
2022/08/25 01:13:52;;;;;;;5.47;2.70;;;;;;;22.10;50.16;98541.63;5076643;28;20081;-49
2022/08/25 01:16:18;;;;;;;6.97;2.50;;;;;;;22.13;49.51;98544.56;5094845;28;20098;-49
2022/08/25 01:18:57;;;;;;;2.88;2.45;;;;;;;22.08;49.80;98549.94;5094729;28;20036;-49
2022/08/25 01:21:25;;;;;;;5.97;2.70;;;;;;;22.06;49.52;98548.63;5094603;28;20016;-49
2022/08/25 01:23:51;;;;;;;7.78;2.50;;;;;;;22.06;49.70;98551.28;5094611;28;20016;-49
2022/08/25 01:26:21;;;;;;;6.18;2.83;;;;;;;22.03;49.74;98547.28;5094831;28;20028;-49
2022/08/25 01:31:35;;;;;;;5.57;2.60;;;;;;;22.02;49.89;98551.03;5094529;28;20039;-49
2022/08/25 01:34:01;;;;;;;5.05;2.50;;;;;;;21.81;50.43;98547.72;5094451;28;20024;-49
2022/08/25 01:36:29;;;;;;;4.60;2.38;;;;;;;21.64;51.27;98540.06;5094366;28;20028;-49
2022/08/25 01:38:56;;;;;;;3.83;2.80;;;;;;;21.51;51.84;98551.34;5094396;28;20028;-49
2022/08/25 01:41:33;;;;;;;4.07;2.63;;;;;;;21.44;51.92;98556.19;5094321;28;20095;-49
2022/08/25 01:43:59;;;;;;;6.90;2.55;;;;;;;21.40;52.26;98550.56;5092972;28;20031;-49
2022/08/25 01:46:25;;;;;;;5.13;2.38;;;;;;;21.33;52.47;98552.75;5092814;28;20085;-48
2022/08/25 01:48:51;;;;;;;9.52;2.97;;;;;;;21.32;52.46;98546.59;5092840;28;20028;-49
2022/08/25 01:51:22;;;;;;;6.28;2.78;;;;;;;21.31;52.56;98542.34;5092774;28;20024;-49
2022/08/25 01:53:49;;;;;;;8.68;3.08;;;;;;;21.34;52.73;98555.13;5094098;28;20032;-49
2022/08/25 01:56:16;;;;;;;7.43;3.30;;;;;;;21.23;55.66;98558.13;5093933;28;20020;-49
2022/08/25 01:58:45;;;;;;;6.35;3.25;;;;;;;20.67;58.01;98565.22;5093965;28;20028;-49
2022/08/25 02:01:17;;;;;;;6.93;3.38;;;;;;;20.09;60.29;98570.81;5092629;28;20024;-49
2022/08/25 02:03:47;;;;;;;5.53;3.20;;;;;;;19.65;61.67;98573.91;5093982;28;20111;-48
2022/08/25 02:06:15;;;;;;;9.02;2.88;;;;;;;19.38;62.40;98573.25;5092533;28;20016;-49
2022/08/25 02:08:41;;;;;;;5.80;3.70;;;;;;;19.21;63.53;98566.28;5092354;28;20032;-49
2022/08/25 02:11:11;;;;;;;12.63;3.63;;;;;;;19.28;63.42;98563.41;5093738;28;20449;-49
2022/08/25 02:13:37;;;;;;;5.03;3.30;;;;;;;19.46;62.09;98557.59;5093720;28;20028;-49
2022/08/25 02:16:03;;;;;;;5.68;3.90;;;;;;;19.63;62.62;98557.38;5092269;28;20085;-49
2022/08/25 02:18:29;;;;;;;5.68;4.55;;;;;;;19.61;62.68;98554.19;5092257;28;20024;-49
2022/08/25 02:20:55;;;;;;;6.05;2.90;;;;;;;19.52;62.59;98551.25;5093511;28;20024;-49
2022/08/25 02:23:21;;;;;;;6.80;3.67;;;;;;;19.68;61.97;98552.09;5092181;28;20505;-49
2022/08/25 02:25:46;;;;;;;7.30;3.05;;;;;;;19.87;61.90;98548.94;5092104;28;20107;-49
2022/08/25 02:28:12;;;;;;;4.57;2.72;;;;;;;19.97;61.76;98550.81;5093379;28;20017;-49
2022/08/25 02:30:41;;;;;;;4.00;2.40;;;;;;;20.02;60.56;98545.50;5093146;28;20501;-49
2022/08/25 02:33:07;;;;;;;4.72;3.00;;;;;;;20.11;59.90;98539.38;5092781;28;20520;-49
2022/08/25 02:35:34;;;;;;;6.60;2.67;;;;;;;20.29;60.39;98537.25;5091985;28;20107;-49
2022/08/25 02:38:00;;;;;;;6.57;2.72;;;;;;;20.31;60.12;98529.78;5091977;28;20497;-49
2022/08/25 02:40:26;;;;;;;4.43;3.00;;;;;;;20.28;60.54;98532.97;5093180;28;20108;-49
2022/08/25 02:42:52;;;;;;;4.70;2.53;;;;;;;20.30;60.93;98528.16;5093258;28;20024;-49
2022/08/25 02:45:18;;;;;;;6.32;3.00;;;;;;;20.42;60.19;98523.34;5093093;28;20392;-48
2022/08/25 02:47:44;;;;;;;5.95;2.67;;;;;;;20.64;59.92;98520.41;5091623;28;20028;-49
2022/08/25 02:50:11;;;;;;;4.85;2.85;;;;;;;20.79;58.68;98527.59;5093045;28;20020;-49
2022/08/25 02:52:37;;;;;;;7.85;3.28;;;;;;;20.69;59.38;98522.28;5092963;28;20545;-49
2022/08/25 02:55:06;;;;;;;4.57;2.50;;;;;;;20.66;59.48;98528.16;5092939;28;20489;-48
2022/08/25 02:57:32;;;;;;;5.18;2.75;;;;;;;20.60;59.16;98524.69;5091521;28;20531;-49
2022/08/25 02:59:58;;;;;;;8.52;2.92;;;;;;;20.54;58.82;98523.91;5091559;28;20020;-48
2022/08/25 03:02:25;;;;;;;8.27;2.78;;;;;;;20.57;58.95;98522.56;5092724;28;20012;-49
2022/08/25 03:04:52;;;;;;;4.35;2.75;;;;;;;20.69;57.98;98527.63;5091407;28;20096;-49
2022/08/25 03:07:19;;;;;;;4.35;2.58;;;;;;;20.71;58.17;98528.94;5092633;28;20099;-48
2022/08/25 03:09:45;;;;;;;5.15;2.80;;;;;;;20.81;57.81;98527.34;5092649;28;20016;-48
2022/08/25 03:12:11;;;;;;;10.43;2.83;;;;;;;20.89;57.70;98524.91;5092585;28;20030;-48
2022/08/25 03:14:39;;;;;;;4.97;2.70;;;;;;;21.03;56.96;98533.13;5091227;28;20032;-48
2022/08/25 03:17:06;;;;;;;5.70;2.85;;;;;;;21.03;57.21;98535.00;5091235;28;20067;-48
2022/08/25 03:19:32;;;;;;;5.97;3.33;;;;;;;21.08;56.69;98532.31;5092470;28;20493;-48
2022/08/25 03:21:58;;;;;;;9.57;2.85;;;;;;;21.07;56.48;98517.38;5092356;28;20019;-49
2022/08/25 03:24:24;;;;;;;8.35;3.00;;;;;;;21.17;56.35;98521.84;5092312;28;20024;-48
2022/08/25 03:26:54;;;;;;;4.72;3.00;;;;;;;21.26;56.37;98523.69;5090945;28;20107;-49
2022/08/25 03:29:30;;;;;;;5.68;2.95;;;;;;;21.32;56.02;98522.56;5092022;28;20074;-49
2022/08/25 03:31:59;;;;;;;5.50;2.58;;;;;;;21.41;55.77;98530.00;5092269;28;20095;-48
2022/08/25 03:34:28;;;;;;;4.45;2.88;;;;;;;21.45;55.46;98529.22;5092249;28;20480;-49
2022/08/25 03:36:55;;;;;;;8.60;2.97;;;;;;;21.58;55.44;98527.81;5092186;28;20027;-49
2022/08/25 03:39:23;;;;;;;8.32;3.08;;;;;;;21.70;55.07;98530.16;5092166;28;20031;-50
2022/08/25 03:41:50;;;;;;;5.38;2.85;;;;;;;21.73;54.80;98525.06;5092122;28;20081;-49
2022/08/25 03:44:16;;;;;;;6.88;2.90;;;;;;;21.77;55.18;98521.81;5091248;28;20024;-48
2022/08/25 03:46:45;;;;;;;6.05;2.53;;;;;;;21.79;54.72;98527.69;5091903;28;20032;-49
2022/08/25 03:49:15;;;;;;;5.60;3.08;;;;;;;21.84;54.49;98515.09;5092064;28;20451;-49
2022/08/25 03:51:45;;;;;;;6.57;3.22;;;;;;;21.90;54.32;98519.31;5090653;28;20104;-49
2022/08/25 03:54:14;;;;;;;5.40;2.72;;;;;;;21.89;54.67;98512.41;5092032;28;20024;-49
2022/08/25 03:56:40;;;;;;;5.38;2.83;;;;;;;21.79;54.51;98517.00;5091944;28;20492;-50
2022/08/25 03:59:09;;;;;;;6.82;2.55;;;;;;;21.67;55.14;98520.84;5091919;28;20020;-49
2022/08/25 04:01:36;;;;;;;6.00;2.55;;;;;;;21.76;54.76;98521.03;5091876;28;20393;-49
2022/08/25 04:04:04;;;;;;;4.60;2.70;;;;;;;21.90;55.00;98518.53;5091833;28;20406;-49
2022/08/25 04:06:31;;;;;;;4.75;3.35;;;;;;;22.02;54.25;98516.28;5091782;28;20016;-49
2022/08/25 04:08:58;;;;;;;6.13;2.47;;;;;;;22.09;54.18;98513.28;5091853;28;20513;-49
2022/08/25 04:11:26;;;;;;;8.40;3.00;;;;;;;22.15;53.99;98509.50;5090448;28;20030;-49
2022/08/25 04:13:55;;;;;;;4.93;2.80;;;;;;;22.22;54.09;98511.88;5091780;28;20044;-48
2022/08/25 04:16:25;;;;;;;7.32;2.83;;;;;;;22.25;54.14;98505.97;5091687;28;20073;-49
2022/08/25 04:18:53;;;;;;;4.05;2.65;;;;;;;22.29;53.92;98513.16;5090465;28;20024;-49
2022/08/25 04:21:20;;;;;;;4.60;2.65;;;;;;;22.26;53.56;98515.59;5091646;28;20020;-49
2022/08/25 04:23:48;;;;;;;6.57;2.85;;;;;;;22.15;54.11;98501.47;5091723;28;20024;-49
2022/08/25 04:26:16;;;;;;;7.20;2.90;;;;;;;22.01;54.47;98506.66;5091681;28;20224;-49
2022/08/25 04:28:41;;;;;;;4.78;3.03;;;;;;;21.91;54.74;98501.41;5090004;28;20027;-48
2022/08/25 04:31:09;;;;;;;5.97;3.53;;;;;;;21.84;55.25;98496.41;5091647;28;20406;-49
2022/08/25 04:33:37;;;;;;;10.25;3.25;;;;;;;21.79;55.64;98504.44;5091555;28;20024;-49
2022/08/25 04:36:05;;;;;;;4.45;2.88;;;;;;;21.81;55.12;98490.81;5091568;28;20048;-49
2022/08/25 04:38:31;;;;;;;3.10;2.80;;;;;;;21.79;55.60;98492.97;5091498;28;20398;-49
2022/08/25 04:40:59;;;;;;;7.15;3.40;;;;;;;21.70;55.73;98495.44;5091439;28;20028;-48
2022/08/25 04:43:25;;;;;;;5.60;2.85;;;;;;;21.71;55.86;98500.50;5091541;28;20016;-49
2022/08/25 04:45:51;;;;;;;7.50;2.83;;;;;;;21.78;55.66;98496.72;5091494;28;20452;-49
2022/08/25 04:48:17;;;;;;;7.20;3.20;;;;;;;21.91;54.97;98501.41;5091394;28;20103;-49
2022/08/25 04:50:43;;;;;;;5.38;2.78;;;;;;;21.98;54.90;98503.78;5090126;28;20089;-48
2022/08/25 04:53:09;;;;;;;8.02;3.38;;;;;;;22.02;55.26;98500.25;5091429;28;20103;-49
2022/08/25 04:55:44;;;;;;;4.28;2.90;;;;;;;22.23;54.16;98510.78;5092173;28;20075;-49
2022/08/25 04:58:10;;;;;;;8.80;3.08;;;;;;;22.31;54.20;98515.53;5095202;28;20024;-49
2022/08/25 05:00:36;;;;;;;6.88;2.88;;;;;;;22.42;53.65;98511.72;5093764;28;20028;-49
2022/08/25 05:03:03;;;;;;;10.07;3.83;;;;;;;22.41;53.56;98510.09;5095131;28;20030;-49
2022/08/25 05:05:29;;;;;;;22.52;4.15;;;;;;;22.32;53.38;98517.16;5095010;28;20173;-49
2022/08/25 05:07:55;;;;;;;9.13;3.30;;;;;;;22.13;53.80;98523.16;5094848;28;20481;-49
2022/08/25 05:10:21;;;;;;;49.50;6.30;;;;;;;21.91;54.27;98514.78;5094872;28;20023;-49
2022/08/25 05:12:47;;;;;;;12.35;3.20;;;;;;;21.76;54.75;98517.56;5093559;28;20472;-49
2022/08/25 05:17:57;;;;;;;7.55;3.20;;;;;;;21.83;55.54;98515.38;5094860;28;20116;-50
2022/08/25 05:20:23;;;;;;;5.88;2.85;;;;;;;22.33;54.06;98516.06;5093431;28;20482;-48
2022/08/25 05:22:48;;;;;;;5.88;2.80;;;;;;;23.07;52.23;98515.84;5094727;28;20032;-49
2022/08/25 05:25:14;;;;;;;5.97;3.10;;;;;;;23.68;50.35;98516.91;5093319;28;20036;-49
2022/08/25 05:27:42;;;;;;;5.60;2.97;;;;;;;24.14;49.05;98521.56;5094542;28;20024;-49
2022/08/25 05:30:10;;;;;;;17.02;4.55;;;;;;;24.51;47.94;98520.72;5092981;28;20052;-50
2022/08/25 05:32:36;;;;;;;8.50;3.75;;;;;;;24.88;47.45;98516.25;5094551;28;20016;-48
2022/08/25 05:35:03;;;;;;;7.13;3.30;;;;;;;25.26;46.71;98518.75;5094506;28;20020;-49
2022/08/25 05:37:28;;;;;;;12.48;3.40;;;;;;;25.66;45.89;98516.25;5093121;28;20070;-49
2022/08/25 05:39:54;;;;;;;8.20;3.30;;;;;;;26.23;45.37;98513.03;5094317;28;20069;-49
2022/08/25 05:42:21;;;;;;;6.80;3.45;;;;;;;26.63;44.45;98515.78;5092984;28;20016;-49
2022/08/25 05:44:47;;;;;;;16.02;4.47;;;;;;;26.84;44.49;98516.03;5094274;28;20513;-50
2022/08/25 05:47:13;;;;;;;5.25;3.03;;;;;;;27.26;42.75;98521.84;5094083;28;20065;-48
2022/08/25 05:49:38;;;;;;;8.88;3.20;;;;;;;27.65;42.20;98524.78;5092902;28;20036;-50
2022/08/25 05:52:04;;;;;;;16.08;5.93;;;;;;;27.95;43.44;98514.13;5092834;28;20020;-50
2022/08/25 05:54:30;;;;;;;9.68;3.42;;;;;;;27.75;44.25;98520.94;5094111;28;20024;-49
2022/08/25 05:56:57;;;;;;;7.30;2.88;;;;;;;27.74;42.70;98522.84;5094105;28;20023;-50
2022/08/25 05:59:23;;;;;;;5.35;3.17;;;;;;;27.91;40.71;98516.69;5094026;28;20032;-49
2022/08/25 06:04:32;;;;;;;5.10;2.60;;;;;;;28.43;38.75;98499.56;5093959;28;20043;-48
2022/08/25 06:06:58;;;;;;;5.72;2.47;;;;;;;28.40;38.42;98498.31;5091499;28;20402;-47
2022/08/25 06:09:25;;;;;;;5.95;2.55;;;;;;;28.38;38.57;98494.38;5092453;28;20165;-48
2022/08/25 06:11:51;;;;;;;4.35;2.75;;;;;;;28.45;38.65;98498.16;5093646;28;20066;-50
2022/08/25 06:14:17;;;;;;;4.47;2.53;;;;;;;28.75;37.93;98494.72;5093690;28;20024;-48
2022/08/25 06:16:43;;;;;;;8.60;2.88;;;;;;;29.15;37.35;98494.38;5075486;28;20030;-48
2022/08/25 06:19:09;;;;;;;10.45;3.20;;;;;;;29.56;36.43;98496.28;5092305;28;20511;-48
2022/08/25 06:21:39;;;;;;;6.07;3.17;;;;;;;29.98;35.89;98493.56;5093581;28;20019;-47
2022/08/25 06:24:05;;;;;;;12.98;3.13;;;;;;;30.53;35.06;98496.19;5093445;28;20105;-50
2022/08/25 06:26:31;;;;;;;8.60;2.88;;;;;;;30.96;34.26;98492.91;5093415;28;20020;-49
2022/08/25 06:28:57;;;;;;;13.20;3.67;;;;;;;31.41;33.62;98485.69;5093133;28;20051;-50
2022/08/25 06:31:23;;;;;;;5.25;2.88;;;;;;;31.91;32.47;98502.59;5092149;28;20378;-50
2022/08/25 06:33:49;;;;;;;13.02;3.85;;;;;;;32.31;32.47;98499.03;5093333;28;20127;-49
2022/08/25 06:36:15;;;;;;;10.50;3.10;;;;;;;32.49;32.32;98502.19;5093299;28;20473;-50
2022/08/25 06:38:40;;;;;;;10.55;3.38;;;;;;;32.57;31.44;98495.81;5093280;28;20106;-49
2022/08/25 06:41:09;;;;;;;5.60;2.85;;;;;;;32.61;31.89;98499.41;5091861;28;20028;-49
2022/08/25 06:43:35;;;;;;;13.93;3.97;;;;;;;32.59;32.66;98504.41;5093142;28;20502;-49
2022/08/25 06:46:09;;;;;;;10.68;3.90;;;;;;;32.45;31.89;98504.81;5093377;28;20062;-50
2022/08/25 06:48:36;;;;;;;;;;;;;;;32.73;32.05;98503.97;5093380;28;20107;-49
2022/08/25 06:51:07;;;;;;;8.80;3.15;;;;;;;33.41;30.69;98500.06;5093210;28;19919;-48
2022/08/25 06:53:34;;;;;;;29.05;4.80;;;;;;;33.83;30.50;98497.41;5092898;28;20024;-50
2022/08/25 06:56:00;;;;;;;22.77;3.28;;;;;;;33.90;30.85;98509.59;5092936;28;20056;-51
2022/08/25 06:58:27;;;;;;;16.48;4.10;;;;;;;33.73;30.33;98508.09;5093202;28;20077;-49
2022/08/25 07:00:52;;;;;;;16.52;3.33;;;;;;;34.02;29.98;98507.47;5091551;28;20485;-48
2022/08/25 07:03:18;;;;;;;29.55;4.47;;;;;;;34.53;29.38;98502.91;5091451;28;20016;-48
2022/08/25 07:05:55;;;;;;;16.08;3.88;;;;;;;34.98;28.67;98507.53;5091441;28;20027;-47
2022/08/25 07:08:22;;;;;;;16.90;3.45;;;;;;;35.64;27.84;98493.59;5092688;28;20068;-49
2022/08/25 07:10:48;;;;;;;11.40;3.40;;;;;;;36.53;26.59;98504.66;5092848;28;20481;-48
2022/08/25 07:13:14;;;;;;;8.88;3.40;;;;;;;37.05;26.17;98501.13;5092538;28;20031;-48
2022/08/25 07:15:42;;;;;;;9.52;3.53;;;;;;;37.54;25.36;98506.06;5092840;28;20398;-50
2022/08/25 07:18:10;;;;;;;9.23;3.25;;;;;;;38.13;24.24;98497.66;5091019;28;20512;-48
2022/08/25 07:20:38;;;;;;;16.73;3.30;;;;;;;38.66;23.95;98498.06;5092702;28;20028;-48
2022/08/25 07:23:05;;;;;;;52.63;5.80;;;;;;;39.06;23.44;98498.78;5092385;28;20028;-48
2022/08/25 07:25:33;;;;;;;10.43;3.03;;;;;;;39.32;23.02;98492.03;5092382;28;20031;-49
2022/08/25 07:27:59;;;;;;;11.45;3.45;;;;;;;39.57;22.36;98491.97;5092253;28;20504;-48
2022/08/25 07:30:24;;;;;;;15.20;3.80;;;;;;;39.70;22.19;98489.53;5090873;28;20076;-49
2022/08/25 07:32:50;;;;;;;8.05;2.72;;;;;;;40.01;21.79;98487.03;5092403;28;20398;-49
2022/08/25 07:35:16;;;;;;;13.70;3.13;;;;;;;40.20;21.85;98480.19;5092331;28;20134;-49
2022/08/25 07:37:50;;;;;;;23.00;3.83;;;;;;;40.52;21.59;98480.72;5090930;28;20420;-49
2022/08/25 07:40:22;;;;;;;14.25;3.25;;;;;;;40.80;21.26;98483.66;5092228;28;20537;-49
2022/08/25 07:42:50;;;;;;;8.50;3.22;;;;;;;41.06;20.61;98490.44;5092185;28;20115;-49
2022/08/25 07:45:16;;;;;;;12.85;3.03;;;;;;;41.29;20.58;98487.84;5092326;28;20020;-48
2022/08/25 07:47:41;;;;;;;14.27;3.45;;;;;;;41.34;20.17;98483.06;5092260;28;20395;-48
2022/08/25 07:50:09;;;;;;;31.45;20.35;;;;;;;41.29;20.58;98481.53;5091944;28;20040;-49
2022/08/25 07:52:35;;;;;;;24.98;8.13;;;;;;;41.56;20.20;98480.81;5092290;28;20024;-49
2022/08/25 07:55:02;;;;;;;32.05;12.60;;;;;;;41.31;20.18;98476.41;5091958;28;20532;-48
2022/08/25 07:57:31;;;;;;;34.30;13.85;;;;;;;41.04;20.97;98482.59;5091984;28;20032;-49
2022/08/25 07:59:57;;;;;;;17.92;9.23;;;;;;;41.24;20.45;98480.03;5091992;28;20460;-49
2022/08/25 08:02:23;;;;;;;20.38;8.73;;;;;;;41.39;20.15;98471.56;5092062;28;20020;-48
2022/08/25 08:04:51;;;;;;;15.23;3.25;;;;;;;41.34;19.71;98472.81;5090577;28;20034;-48
2022/08/25 08:07:23;;;;;;;10.40;2.63;;;;;;;41.29;19.98;98478.78;5090566;28;20104;-50
2022/08/25 08:09:50;;;;;;;9.77;2.70;;;;;;;41.37;19.51;98482.22;5090500;28;20082;-50
2022/08/25 08:12:16;;;;;;;3.38;1.92;;;;;;;41.71;19.26;98482.19;5091640;28;20030;-48
2022/08/25 08:14:42;;;;;;;11.73;2.78;;;;;;;42.07;19.28;98478.94;5091891;28;20032;-50
2022/08/25 08:17:09;;;;;;;8.73;2.50;;;;;;;42.49;18.53;98474.69;5091735;28;20489;-50
2022/08/25 08:19:35;;;;;;;11.85;3.60;;;;;;;42.91;18.36;98477.13;5091787;28;20036;-50
2022/08/25 08:22:03;;;;;;;6.55;2.17;;;;;;;43.18;17.80;98468.69;5091732;28;20023;-49
2022/08/25 08:24:30;;;;;;;11.20;3.03;;;;;;;42.73;18.40;98474.66;5091741;28;20028;-50
2022/08/25 08:26:57;;;;;;;7.65;2.40;;;;;;;42.46;18.10;98472.78;5091520;28;20084;-50
2022/08/25 08:29:23;;;;;;;3.70;1.67;;;;;;;42.31;18.02;98469.47;5090313;28;20100;-49
2022/08/25 08:31:49;;;;;;;9.80;2.25;;;;;;;41.95;18.54;98471.22;5095706;28;20020;-48
2022/08/25 08:34:15;;;;;;;8.77;1.63;;;;;;;41.29;19.83;98485.09;5094327;28;20497;-49
2022/08/25 08:36:41;;;;;;;6.32;1.67;;;;;;;41.44;18.75;98480.16;5094335;28;20142;-49
2022/08/25 08:39:08;;;;;;;4.30;1.95;;;;;;;41.57;18.92;98482.34;5095577;28;20106;-49
2022/08/25 08:42:16;;;;;;;11.00;1.80;;;;;;;42.04;19.71;98475.03;5095450;28;20023;-49
2022/08/25 08:44:45;;;;;;;6.75;1.60;;;;;;;42.42;18.24;98469.28;5094217;28;20036;-48
2022/08/25 08:47:33;;;;;;;5.25;1.30;;;;;;;42.61;17.67;98472.53;5095234;28;20043;-49
2022/08/25 08:50:05;;;;;;;11.63;1.95;;;;;;;42.84;18.54;98466.97;5095368;28;20032;-49
2022/08/25 08:52:49;;;;;;;11.52;2.30;;;;;;;43.15;18.69;98474.31;5095339;28;20023;-48
2022/08/25 08:55:26;;;;;;;5.07;1.30;;;;;;;43.27;18.37;98471.69;5093951;28;20036;-50
2022/08/25 08:57:56;;;;;;;10.65;2.10;;;;;;;43.52;17.59;98464.84;5093950;28;20027;-49
2022/08/25 09:00:22;;;;;;;16.17;2.15;;;;;;;43.52;16.61;98473.13;5095120;28;20020;-50
2022/08/25 09:03:03;;;;;;;20.45;2.78;;;;;;;43.61;17.32;98473.31;5093845;28;20081;-49
2022/08/25 09:05:35;;;;;;;24.33;3.30;;;;;;;43.27;17.03;98470.91;5095131;28;20464;-48
2022/08/25 09:08:09;;;;;;;2.47;1.02;;;;;;;43.37;16.96;98474.66;5094964;28;20054;-50
2022/08/25 09:11:00;;;;;;;2.10;1.02;;;;;;;44.16;16.40;98472.91;5095310;28;20505;-48
2022/08/25 09:13:42;;;;;;;1.55;1.02;;;;;;;44.22;16.10;98469.16;5094942;28;20113;-48
2022/08/25 09:19:43;;;;;;;4.97;1.25;;;;;;;44.62;15.70;98470.97;5095139;28;20055;-50
2022/08/25 09:22:27;;;;;;;3.17;1.20;;;;;;;44.33;16.00;98477.19;5093464;28;20080;-49
2022/08/25 09:24:59;;;;;;;6.75;1.67;;;;;;;44.09;15.84;98482.13;5094736;28;20032;-49
2022/08/25 09:27:45;;;;;;;3.22;2.00;;;;;;;43.38;16.32;98482.50;5093257;28;20038;-49
2022/08/25 09:30:19;;;;;;;4.45;1.45;;;;;;;43.08;17.05;98481.53;5093084;28;20121;-49
2022/08/25 09:32:48;;;;;;;1.80;1.30;;;;;;;43.39;16.81;98475.78;5093269;28;20107;-50
2022/08/25 09:35:25;;;;;;;5.13;1.25;;;;;;;43.52;16.91;98464.84;5093146;28;20059;-49
2022/08/25 09:38:05;;;;;;;2.30;1.20;;;;;;;43.37;17.34;98482.94;5093162;28;20077;-50
2022/08/25 09:40:56;;;;;;;4.70;1.60;;;;;;;43.57;16.37;98477.34;5092641;28;20052;-49
2022/08/25 09:43:33;;;;;;;7.50;1.88;;;;;;;44.49;16.25;98468.13;5088102;28;20036;-50
2022/08/25 09:46:04;;;;;;;5.47;1.70;;;;;;;44.51;16.03;98476.75;5092958;28;20448;-50
2022/08/25 09:48:39;;;;;;;3.58;1.23;;;;;;;45.01;15.72;98469.13;5094256;28;20028;-49
2022/08/25 09:51:25;;;;;;;9.70;1.77;;;;;;;45.94;15.08;98465.56;5094252;28;20031;-50
2022/08/25 09:53:55;;;;;;;5.97;1.55;;;;;;;46.14;15.23;98452.22;5094158;28;20082;-49
2022/08/25 09:56:26;;;;;;;4.03;1.50;;;;;;;45.64;15.22;98460.16;5092784;28;20021;-48
2022/08/25 09:58:54;;;;;;;7.68;2.13;;;;;;;45.45;15.28;98459.13;5094017;28;20030;-47
2022/08/25 10:01:22;;;;;;;5.70;1.20;;;;;;;44.91;15.23;98457.13;5093987;28;20527;-50
2022/08/25 10:04:05;;;;;;;4.97;1.35;;;;;;;44.58;16.06;98456.44;5092706;28;20494;-50
2022/08/25 10:06:43;;;;;;;3.47;1.45;;;;;;;44.57;16.17;98458.41;5093924;28;20043;-51
2022/08/25 10:09:33;;;;;;;3.78;1.00;;;;;;;45.03;15.60;98453.59;5092870;28;20119;-51
2022/08/25 10:12:01;;;;;;;4.65;1.58;;;;;;;44.27;16.00;98443.75;5093846;28;20375;-49
2022/08/25 10:14:31;;;;;;;4.10;1.30;;;;;;;44.08;16.18;98441.88;5093848;28;20520;-50
2022/08/25 10:17:26;;;;;;;6.15;1.20;;;;;;;44.44;15.92;98433.41;5093625;28;20024;-51
2022/08/25 10:19:55;;;;;;;2.58;0.90;;;;;;;44.43;15.51;98442.16;5092418;28;20024;-49
2022/08/25 10:22:31;;;;;;;4.88;1.35;;;;;;;44.44;16.03;98435.41;5092288;28;20055;-49
2022/08/25 10:24:58;;;;;;;2.55;1.17;;;;;;;44.28;15.78;98425.94;5093606;28;20016;-50
2022/08/25 10:27:38;;;;;;;2.00;1.10;;;;;;;44.17;15.95;98430.97;5093507;28;20024;-50
2022/08/25 10:30:07;;;;;;;6.40;1.30;;;;;;;44.21;16.50;98431.66;5093170;28;20051;-50
2022/08/25 10:32:47;;;;;;;3.47;1.20;;;;;;;44.65;15.69;98425.78;5092125;28;20504;-52
2022/08/25 10:35:22;;;;;;;3.92;1.20;;;;;;;44.31;15.53;98432.56;5092045;28;20493;-53
2022/08/25 10:38:21;;;;;;;3.15;1.42;;;;;;;44.20;15.32;98423.78;5093332;28;20055;-53
2022/08/25 10:40:55;;;;;;;3.28;1.45;;;;;;;43.63;15.98;98420.38;5091969;28;20028;-53
2022/08/25 10:45:41;;;;;;;2.22;1.13;;;;;;;43.32;16.47;98411.59;5093240;28;20427;-52
2022/08/25 10:47:26;;;;;;;7.53;1.27;;;;;;;43.77;16.17;98405.44;5081664;28;20034;-52
2022/08/25 10:50:08;;;;;;;3.20;1.40;;;;;;;43.80;16.24;98407.38;5030598;28;20048;-52
2022/08/25 10:53:13;;;;;;;4.07;1.20;;;;;;;43.62;16.31;98419.59;5030345;28;20520;-52
2022/08/25 10:56:05;;;;;;;2.67;1.10;;;;;;;43.24;15.89;98408.19;5014013;28;20026;-52
2022/08/25 10:58:42;;;;;;;2.72;0.98;;;;;;;42.71;16.69;98416.34;5013982;28;20029;-52
2022/08/25 11:01:22;;;;;;;1.98;1.10;;;;;;;41.78;16.89;98413.19;5030501;28;20450;-53
2022/08/25 11:03:58;;;;;;;5.18;1.10;;;;;;;41.66;17.26;98411.03;5030470;28;20088;-52
2022/08/25 11:06:41;;;;;;;8.02;1.42;;;;;;;42.14;17.49;98403.56;5013880;28;20041;-52
2022/08/25 11:09:12;;;;;;;4.40;1.15;;;;;;;42.85;16.26;98409.78;5030357;28;20034;-53
2022/08/25 11:11:48;;;;;;;14.88;1.70;;;;;;;42.84;16.23;98406.25;5013702;28;20124;-52
2022/08/25 11:14:13;;;;;;;4.55;1.17;;;;;;;43.11;16.31;98401.78;5013720;28;20523;-53
2022/08/25 11:16:51;;;;;;;3.22;1.33;;;;;;;42.97;16.37;98397.34;5013621;28;20025;-54
2022/08/25 11:19:29;;;;;;;3.92;1.15;;;;;;;42.68;16.63;98406.94;5030184;28;20127;-52
2022/08/25 11:22:00;;;;;;;3.92;1.52;;;;;;;42.51;17.02;98399.78;5030181;28;20112;-53
2022/08/25 11:24:54;;;;;;;5.57;1.77;;;;;;;43.13;16.56;98396.63;5030184;28;20033;-51
2022/08/25 11:27:22;;;;;;;9.93;1.83;;;;;;;44.07;16.13;98393.28;5089462;28;20115;-52
2022/08/25 11:30:10;;;;;;;4.88;1.20;;;;;;;44.96;15.12;98394.88;5092110;28;20035;-52
2022/08/25 11:32:38;;;;;;;9.10;1.52;;;;;;;45.33;15.20;98393.38;5091073;28;20039;-51
2022/08/25 11:35:07;;;;;;;5.57;1.30;;;;;;;45.20;14.93;98384.28;5092487;28;20666;-51
2022/08/25 11:37:40;;;;;;;11.52;1.83;;;;;;;44.87;14.90;98384.44;5092255;28;20028;-53
2022/08/25 11:40:13;;;;;;;11.70;2.70;;;;;;;44.91;14.78;98387.13;5092277;28;20024;-53
2022/08/25 11:42:56;;;;;;;5.68;1.60;;;;;;;45.05;14.40;98381.91;5090950;28;20024;-52
2022/08/25 11:45:50;;;;;;;13.30;2.05;;;;;;;45.56;14.40;98377.63;5092196;28;20549;-53
2022/08/25 11:48:19;;;;;;;;;;;;;;;45.70;14.36;98379.19;5091192;28;20497;-53
2022/08/25 11:51:04;;;;;;;4.05;1.30;;;;;;;45.25;14.62;98372.63;5092029;28;19967;-53
2022/08/25 11:53:36;;;;;;;5.47;1.95;;;;;;;45.23;14.65;98370.28;5091005;28;20028;-54
2022/08/25 11:56:07;;;;;;;3.75;1.73;;;;;;;45.52;14.21;98369.44;5092078;28;20050;-52
2022/08/25 11:58:47;;;;;;;2.30;1.40;;;;;;;45.31;14.34;98373.66;5090707;28;20043;-54